sensor_id;sensor_type;location;lat;lon;timestamp;temperature;humidity
72930;DHT22;61073;54.260;20.816;2022-07-18T00:01:02;23.00;54.70
72930;DHT22;61073;54.260;20.816;2022-07-18T00:03:29;23.00;54.70
72930;DHT22;61073;54.260;20.816;2022-07-18T00:05:56;23.00;54.70
72930;DHT22;61073;54.260;20.816;2022-07-18T00:08:22;23.00;54.70
72930;DHT22;61073;54.260;20.816;2022-07-18T00:10:49;22.90;54.70
72930;DHT22;61073;54.260;20.816;2022-07-18T00:13:15;23.00;54.80
72930;DHT22;61073;54.260;20.816;2022-07-18T00:15:42;23.00;54.80
72930;DHT22;61073;54.260;20.816;2022-07-18T00:18:09;22.90;54.80
72930;DHT22;61073;54.260;20.816;2022-07-18T00:20:35;22.90;54.80
72930;DHT22;61073;54.260;20.816;2022-07-18T00:23:02;22.90;54.80
72930;DHT22;61073;54.260;20.816;2022-07-18T00:25:28;22.90;54.80
72930;DHT22;61073;54.260;20.816;2022-07-18T00:27:55;22.90;54.80
72930;DHT22;61073;54.260;20.816;2022-07-18T00:30:21;22.90;54.80
72930;DHT22;61073;54.260;20.816;2022-07-18T00:32:48;22.90;55.40
72930;DHT22;61073;54.260;20.816;2022-07-18T00:35:14;22.90;55.40
72930;DHT22;61073;54.260;20.816;2022-07-18T00:37:40;22.90;54.80
72930;DHT22;61073;54.260;20.816;2022-07-18T00:40:07;22.80;54.80
72930;DHT22;61073;54.260;20.816;2022-07-18T00:42:34;22.80;54.90
72930;DHT22;61073;54.260;20.816;2022-07-18T00:45:00;22.90;54.90
72930;DHT22;61073;54.260;20.816;2022-07-18T00:47:27;22.80;55.40
72930;DHT22;61073;54.260;20.816;2022-07-18T00:49:53;22.80;54.80
72930;DHT22;61073;54.260;20.816;2022-07-18T00:52:20;22.80;54.90
72930;DHT22;61073;54.260;20.816;2022-07-18T00:54:46;22.80;54.90
72930;DHT22;61073;54.260;20.816;2022-07-18T00:57:13;22.80;54.80
72930;DHT22;61073;54.260;20.816;2022-07-18T00:59:40;22.80;54.90
72930;DHT22;61073;54.260;20.816;2022-07-18T01:02:25;22.80;55.50
72930;DHT22;61073;54.260;20.816;2022-07-18T01:04:53;22.80;54.90
72930;DHT22;61073;54.260;20.816;2022-07-18T01:07:19;22.80;54.90
72930;DHT22;61073;54.260;20.816;2022-07-18T01:09:46;22.80;54.80
72930;DHT22;61073;54.260;20.816;2022-07-18T01:12:12;22.80;54.80
72930;DHT22;61073;54.260;20.816;2022-07-18T01:14:39;22.80;55.40
72930;DHT22;61073;54.260;20.816;2022-07-18T01:17:11;22.80;54.90
72930;DHT22;61073;54.260;20.816;2022-07-18T01:19:38;22.80;54.90
72930;DHT22;61073;54.260;20.816;2022-07-18T01:22:04;22.80;54.90
72930;DHT22;61073;54.260;20.816;2022-07-18T01:24:30;22.80;54.70
72930;DHT22;61073;54.260;20.816;2022-07-18T01:26:57;22.80;54.80
72930;DHT22;61073;54.260;20.816;2022-07-18T01:29:24;22.80;54.80
72930;DHT22;61073;54.260;20.816;2022-07-18T01:31:51;22.80;54.70
72930;DHT22;61073;54.260;20.816;2022-07-18T01:34:21;22.80;55.50
72930;DHT22;61073;54.260;20.816;2022-07-18T01:36:48;22.80;54.80
72930;DHT22;61073;54.260;20.816;2022-07-18T01:39:14;22.70;54.70
72930;DHT22;61073;54.260;20.816;2022-07-18T01:41:41;22.80;54.80
72930;DHT22;61073;54.260;20.816;2022-07-18T01:44:07;22.80;54.80
72930;DHT22;61073;54.260;20.816;2022-07-18T01:46:35;22.70;54.70
72930;DHT22;61073;54.260;20.816;2022-07-18T01:49:01;22.70;55.30
72930;DHT22;61073;54.260;20.816;2022-07-18T01:51:28;22.70;54.80
72930;DHT22;61073;54.260;20.816;2022-07-18T01:53:55;22.70;54.80
72930;DHT22;61073;54.260;20.816;2022-07-18T01:56:24;22.70;54.80
72930;DHT22;61073;54.260;20.816;2022-07-18T01:58:50;22.80;54.90
72930;DHT22;61073;54.260;20.816;2022-07-18T02:01:17;22.70;54.80
72930;DHT22;61073;54.260;20.816;2022-07-18T02:03:44;22.70;54.70
72930;DHT22;61073;54.260;20.816;2022-07-18T02:06:10;22.70;54.80
72930;DHT22;61073;54.260;20.816;2022-07-18T02:08:37;22.70;54.90
72930;DHT22;61073;54.260;20.816;2022-07-18T02:11:03;22.70;54.90
72930;DHT22;61073;54.260;20.816;2022-07-18T02:13:30;22.70;54.90
72930;DHT22;61073;54.260;20.816;2022-07-18T02:15:56;22.70;54.90
72930;DHT22;61073;54.260;20.816;2022-07-18T02:18:23;22.70;54.80
72930;DHT22;61073;54.260;20.816;2022-07-18T02:20:49;22.70;54.90
72930;DHT22;61073;54.260;20.816;2022-07-18T02:23:16;22.70;54.90
72930;DHT22;61073;54.260;20.816;2022-07-18T02:25:43;22.70;54.80
72930;DHT22;61073;54.260;20.816;2022-07-18T02:28:10;22.70;54.80
72930;DHT22;61073;54.260;20.816;2022-07-18T02:30:37;22.70;55.40
72930;DHT22;61073;54.260;20.816;2022-07-18T02:33:04;22.70;54.70
72930;DHT22;61073;54.260;20.816;2022-07-18T02:35:30;22.70;54.90
72930;DHT22;61073;54.260;20.816;2022-07-18T02:37:57;22.70;54.80
72930;DHT22;61073;54.260;20.816;2022-07-18T02:40:23;22.70;54.80
72930;DHT22;61073;54.260;20.816;2022-07-18T02:42:50;22.70;54.90
72930;DHT22;61073;54.260;20.816;2022-07-18T02:45:16;22.70;54.90
72930;DHT22;61073;54.260;20.816;2022-07-18T02:47:43;22.70;54.80
72930;DHT22;61073;54.260;20.816;2022-07-18T02:50:10;22.70;55.00
72930;DHT22;61073;54.260;20.816;2022-07-18T02:52:38;22.70;54.90
72930;DHT22;61073;54.260;20.816;2022-07-18T02:55:05;22.70;54.90
72930;DHT22;61073;54.260;20.816;2022-07-18T02:57:32;22.70;55.30
72930;DHT22;61073;54.260;20.816;2022-07-18T02:59:58;22.70;54.70
72930;DHT22;61073;54.260;20.816;2022-07-18T03:02:25;22.70;54.70
72930;DHT22;61073;54.260;20.816;2022-07-18T03:04:51;22.70;54.60
72930;DHT22;61073;54.260;20.816;2022-07-18T03:07:18;22.70;54.60
72930;DHT22;61073;54.260;20.816;2022-07-18T03:09:44;22.60;54.60
72930;DHT22;61073;54.260;20.816;2022-07-18T03:12:11;22.70;54.60
72930;DHT22;61073;54.260;20.816;2022-07-18T03:14:37;22.70;54.60
72930;DHT22;61073;54.260;20.816;2022-07-18T03:17:04;22.70;54.60
72930;DHT22;61073;54.260;20.816;2022-07-18T03:19:31;22.70;54.60
72930;DHT22;61073;54.260;20.816;2022-07-18T03:21:57;22.70;54.60
72930;DHT22;61073;54.260;20.816;2022-07-18T03:24:24;22.70;54.60
72930;DHT22;61073;54.260;20.816;2022-07-18T03:26:50;22.70;54.50
72930;DHT22;61073;54.260;20.816;2022-07-18T03:29:17;22.70;54.50
72930;DHT22;61073;54.260;20.816;2022-07-18T03:31:43;22.70;54.50
72930;DHT22;61073;54.260;20.816;2022-07-18T03:34:10;22.70;54.50
72930;DHT22;61073;54.260;20.816;2022-07-18T03:36:37;22.70;54.40
72930;DHT22;61073;54.260;20.816;2022-07-18T03:39:04;22.70;54.50
72930;DHT22;61073;54.260;20.816;2022-07-18T03:41:31;22.70;54.40
72930;DHT22;61073;54.260;20.816;2022-07-18T03:43:58;22.70;54.30
72930;DHT22;61073;54.260;20.816;2022-07-18T03:46:25;22.70;54.30
72930;DHT22;61073;54.260;20.816;2022-07-18T03:48:51;22.80;54.40
72930;DHT22;61073;54.260;20.816;2022-07-18T03:51:18;22.80;54.30
72930;DHT22;61073;54.260;20.816;2022-07-18T03:53:44;22.80;54.30
72930;DHT22;61073;54.260;20.816;2022-07-18T03:56:11;22.80;54.40
72930;DHT22;61073;54.260;20.816;2022-07-18T03:58:37;22.80;54.30
72930;DHT22;61073;54.260;20.816;2022-07-18T04:01:04;22.70;54.30
72930;DHT22;61073;54.260;20.816;2022-07-18T04:03:30;22.80;54.30
72930;DHT22;61073;54.260;20.816;2022-07-18T04:05:57;22.80;54.30
72930;DHT22;61073;54.260;20.816;2022-07-18T04:08:24;22.80;54.10
72930;DHT22;61073;54.260;20.816;2022-07-18T04:10:50;22.80;54.20
72930;DHT22;61073;54.260;20.816;2022-07-18T04:13:17;22.80;54.00
72930;DHT22;61073;54.260;20.816;2022-07-18T04:15:45;22.80;54.00
72930;DHT22;61073;54.260;20.816;2022-07-18T04:18:11;22.90;54.10
72930;DHT22;61073;54.260;20.816;2022-07-18T04:20:38;22.90;53.90
72930;DHT22;61073;54.260;20.816;2022-07-18T04:23:09;22.90;53.90
72930;DHT22;61073;54.260;20.816;2022-07-18T04:25:37;22.90;53.80
72930;DHT22;61073;54.260;20.816;2022-07-18T04:28:04;22.90;53.80
72930;DHT22;61073;54.260;20.816;2022-07-18T04:30:31;22.90;53.70
72930;DHT22;61073;54.260;20.816;2022-07-18T04:33:00;23.00;53.80
72930;DHT22;61073;54.260;20.816;2022-07-18T04:35:26;23.00;53.70
72930;DHT22;61073;54.260;20.816;2022-07-18T04:37:54;23.00;53.70
72930;DHT22;61073;54.260;20.816;2022-07-18T04:40:21;23.00;53.60
72930;DHT22;61073;54.260;20.816;2022-07-18T04:42:48;23.00;53.60
72930;DHT22;61073;54.260;20.816;2022-07-18T04:45:15;23.00;53.40
72930;DHT22;61073;54.260;20.816;2022-07-18T04:47:42;23.10;53.50
72930;DHT22;61073;54.260;20.816;2022-07-18T04:50:08;23.10;53.50
72930;DHT22;61073;54.260;20.816;2022-07-18T04:52:38;23.00;53.30
72930;DHT22;61073;54.260;20.816;2022-07-18T04:55:06;23.10;53.40
72930;DHT22;61073;54.260;20.816;2022-07-18T04:57:34;23.20;53.40
72930;DHT22;61073;54.260;20.816;2022-07-18T05:00:02;23.20;53.30
72930;DHT22;61073;54.260;20.816;2022-07-18T05:02:29;23.20;53.30
72930;DHT22;61073;54.260;20.816;2022-07-18T05:04:55;23.20;53.30
72930;DHT22;61073;54.260;20.816;2022-07-18T05:07:23;23.20;53.20
72930;DHT22;61073;54.260;20.816;2022-07-18T05:09:49;23.20;53.20
72930;DHT22;61073;54.260;20.816;2022-07-18T05:12:16;23.30;53.20
72930;DHT22;61073;54.260;20.816;2022-07-18T05:14:44;23.30;53.20
72930;DHT22;61073;54.260;20.816;2022-07-18T05:17:16;23.30;53.70
72930;DHT22;61073;54.260;20.816;2022-07-18T05:19:42;23.30;53.00
72930;DHT22;61073;54.260;20.816;2022-07-18T05:22:09;23.30;52.90
72930;DHT22;61073;54.260;20.816;2022-07-18T05:24:35;23.30;52.90
72930;DHT22;61073;54.260;20.816;2022-07-18T05:27:02;23.30;53.00
72930;DHT22;61073;54.260;20.816;2022-07-18T05:29:28;23.30;52.90
72930;DHT22;61073;54.260;20.816;2022-07-18T05:31:56;23.30;52.90
72930;DHT22;61073;54.260;20.816;2022-07-18T05:34:23;23.30;52.80
72930;DHT22;61073;54.260;20.816;2022-07-18T05:36:49;23.40;52.90
72930;DHT22;61073;54.260;20.816;2022-07-18T05:39:16;23.40;52.80
72930;DHT22;61073;54.260;20.816;2022-07-18T05:41:43;23.40;52.70
72930;DHT22;61073;54.260;20.816;2022-07-18T05:44:09;23.40;52.60
72930;DHT22;61073;54.260;20.816;2022-07-18T05:46:36;23.50;52.50
72930;DHT22;61073;54.260;20.816;2022-07-18T05:49:03;23.50;52.30
72930;DHT22;61073;54.260;20.816;2022-07-18T05:51:29;23.50;52.30
72930;DHT22;61073;54.260;20.816;2022-07-18T05:53:56;23.50;52.60
72930;DHT22;61073;54.260;20.816;2022-07-18T05:56:22;23.60;53.00
72930;DHT22;61073;54.260;20.816;2022-07-18T05:58:49;23.50;52.30
72930;DHT22;61073;54.260;20.816;2022-07-18T06:01:15;23.60;52.40
72930;DHT22;61073;54.260;20.816;2022-07-18T06:03:46;23.60;52.80
72930;DHT22;61073;54.260;20.816;2022-07-18T06:06:13;23.60;52.00
72930;DHT22;61073;54.260;20.816;2022-07-18T06:08:40;23.70;51.90
72930;DHT22;61073;54.260;20.816;2022-07-18T06:11:07;23.80;51.90
72930;DHT22;61073;54.260;20.816;2022-07-18T06:13:35;23.80;51.80
72930;DHT22;61073;54.260;20.816;2022-07-18T06:16:03;23.80;51.80
72930;DHT22;61073;54.260;20.816;2022-07-18T06:18:31;23.80;51.80
72930;DHT22;61073;54.260;20.816;2022-07-18T06:20:57;23.80;51.70
72930;DHT22;61073;54.260;20.816;2022-07-18T06:23:24;23.80;51.80
72930;DHT22;61073;54.260;20.816;2022-07-18T06:25:51;23.80;51.70
72930;DHT22;61073;54.260;20.816;2022-07-18T06:28:17;23.90;51.70
72930;DHT22;61073;54.260;20.816;2022-07-18T06:30:44;23.90;51.70
72930;DHT22;61073;54.260;20.816;2022-07-18T06:33:11;23.90;52.20
72930;DHT22;61073;54.260;20.816;2022-07-18T06:35:40;23.90;51.60
72930;DHT22;61073;54.260;20.816;2022-07-18T06:38:06;23.90;51.50
72930;DHT22;61073;54.260;20.816;2022-07-18T06:40:33;23.90;51.60
72930;DHT22;61073;54.260;20.816;2022-07-18T06:42:59;24.00;51.50
72930;DHT22;61073;54.260;20.816;2022-07-18T06:45:25;24.00;51.60
72930;DHT22;61073;54.260;20.816;2022-07-18T06:47:52;24.00;51.60
72930;DHT22;61073;54.260;20.816;2022-07-18T06:50:19;24.00;51.80
72930;DHT22;61073;54.260;20.816;2022-07-18T06:52:45;24.00;51.60
72930;DHT22;61073;54.260;20.816;2022-07-18T06:55:12;24.00;51.70
72930;DHT22;61073;54.260;20.816;2022-07-18T06:57:39;24.10;51.70
72930;DHT22;61073;54.260;20.816;2022-07-18T07:00:07;24.00;51.90
72930;DHT22;61073;54.260;20.816;2022-07-18T07:02:39;24.00;51.80
72930;DHT22;61073;54.260;20.816;2022-07-18T07:05:06;24.00;51.80
72930;DHT22;61073;54.260;20.816;2022-07-18T07:07:32;24.10;51.80
72930;DHT22;61073;54.260;20.816;2022-07-18T07:09:59;24.10;51.80
72930;DHT22;61073;54.260;20.816;2022-07-18T07:12:26;24.10;51.90
72930;DHT22;61073;54.260;20.816;2022-07-18T07:14:53;24.10;51.70
72930;DHT22;61073;54.260;20.816;2022-07-18T07:17:19;24.10;51.70
72930;DHT22;61073;54.260;20.816;2022-07-18T07:19:46;24.10;51.60
72930;DHT22;61073;54.260;20.816;2022-07-18T07:22:12;24.10;51.70
72930;DHT22;61073;54.260;20.816;2022-07-18T07:24:39;24.20;51.70
72930;DHT22;61073;54.260;20.816;2022-07-18T07:27:07;24.20;51.70
72930;DHT22;61073;54.260;20.816;2022-07-18T07:29:33;24.30;51.60
72930;DHT22;61073;54.260;20.816;2022-07-18T07:32:00;24.30;51.30
72930;DHT22;61073;54.260;20.816;2022-07-18T07:34:27;24.30;51.40
72930;DHT22;61073;54.260;20.816;2022-07-18T07:36:54;24.40;51.40
72930;DHT22;61073;54.260;20.816;2022-07-18T07:39:21;24.40;51.20
72930;DHT22;61073;54.260;20.816;2022-07-18T07:41:47;24.40;51.20
72930;DHT22;61073;54.260;20.816;2022-07-18T07:44:17;24.50;51.30
72930;DHT22;61073;54.260;20.816;2022-07-18T07:46:43;24.50;50.90
72930;DHT22;61073;54.260;20.816;2022-07-18T07:49:10;24.50;50.90
72930;DHT22;61073;54.260;20.816;2022-07-18T07:51:36;24.60;51.30
72930;DHT22;61073;54.260;20.816;2022-07-18T07:54:03;24.50;51.10
72930;DHT22;61073;54.260;20.816;2022-07-18T07:56:31;24.50;51.00
72930;DHT22;61073;54.260;20.816;2022-07-18T07:58:58;24.60;51.60
72930;DHT22;61073;54.260;20.816;2022-07-18T08:01:24;24.60;51.30
72930;DHT22;61073;54.260;20.816;2022-07-18T08:03:51;24.50;50.90
72930;DHT22;61073;54.260;20.816;2022-07-18T08:06:18;24.50;51.30
72930;DHT22;61073;54.260;20.816;2022-07-18T08:08:45;24.50;51.10
72930;DHT22;61073;54.260;20.816;2022-07-18T08:11:11;24.50;51.30
72930;DHT22;61073;54.260;20.816;2022-07-18T08:13:38;24.40;51.80
72930;DHT22;61073;54.260;20.816;2022-07-18T08:16:04;24.40;51.50
72930;DHT22;61073;54.260;20.816;2022-07-18T08:18:31;24.40;51.60
72930;DHT22;61073;54.260;20.816;2022-07-18T08:20:57;24.40;51.40
72930;DHT22;61073;54.260;20.816;2022-07-18T08:23:24;24.40;51.40
72930;DHT22;61073;54.260;20.816;2022-07-18T08:25:50;24.40;52.10
72930;DHT22;61073;54.260;20.816;2022-07-18T08:28:17;24.40;51.50
72930;DHT22;61073;54.260;20.816;2022-07-18T08:30:45;24.40;51.70
72930;DHT22;61073;54.260;20.816;2022-07-18T08:33:12;24.30;51.60
72930;DHT22;61073;54.260;20.816;2022-07-18T08:35:38;24.30;51.70
72930;DHT22;61073;54.260;20.816;2022-07-18T08:38:05;24.30;51.70
72930;DHT22;61073;54.260;20.816;2022-07-18T08:40:31;24.40;51.60
72930;DHT22;61073;54.260;20.816;2022-07-18T08:42:58;24.40;51.50
72930;DHT22;61073;54.260;20.816;2022-07-18T08:45:44;24.30;51.60
72930;DHT22;61073;54.260;20.816;2022-07-18T08:48:14;24.30;52.10
72930;DHT22;61073;54.260;20.816;2022-07-18T08:50:44;24.30;52.10
72930;DHT22;61073;54.260;20.816;2022-07-18T08:53:12;24.20;52.20
72930;DHT22;61073;54.260;20.816;2022-07-18T08:55:38;24.20;52.20
72930;DHT22;61073;54.260;20.816;2022-07-18T08:58:05;24.20;52.20
72930;DHT22;61073;54.260;20.816;2022-07-18T09:00:40;24.30;52.00
72930;DHT22;61073;54.260;20.816;2022-07-18T09:03:06;24.30;51.70
72930;DHT22;61073;54.260;20.816;2022-07-18T09:05:33;24.40;51.60
72930;DHT22;61073;54.260;20.816;2022-07-18T09:13:40;24.50;51.50
72930;DHT22;61073;54.260;20.816;2022-07-18T09:16:09;24.40;51.60
72930;DHT22;61073;54.260;20.816;2022-07-18T09:18:46;24.50;51.50
72930;DHT22;61073;54.260;20.816;2022-07-18T09:21:14;24.50;51.50
72930;DHT22;61073;54.260;20.816;2022-07-18T09:23:45;24.50;51.70
72930;DHT22;61073;54.260;20.816;2022-07-18T09:26:12;24.40;52.40
72930;DHT22;61073;54.260;20.816;2022-07-18T09:29:14;24.30;51.90
72930;DHT22;61073;54.260;20.816;2022-07-18T09:31:51;24.30;52.70
72930;DHT22;61073;54.260;20.816;2022-07-18T09:37:03;24.40;51.90
72930;DHT22;61073;54.260;20.816;2022-07-18T09:39:30;24.40;51.60
72930;DHT22;61073;54.260;20.816;2022-07-18T09:44:42;24.50;51.70
72930;DHT22;61073;54.260;20.816;2022-07-18T09:47:08;24.40;52.00
72930;DHT22;61073;54.260;20.816;2022-07-18T09:49:36;24.40;51.90
72930;DHT22;61073;54.260;20.816;2022-07-18T09:52:07;24.40;52.00
72930;DHT22;61073;54.260;20.816;2022-07-18T09:54:40;24.40;51.80
72930;DHT22;61073;54.260;20.816;2022-07-18T09:57:08;24.40;51.90
72930;DHT22;61073;54.260;20.816;2022-07-18T09:59:36;24.40;52.00
72930;DHT22;61073;54.260;20.816;2022-07-18T10:02:04;24.40;52.10
72930;DHT22;61073;54.260;20.816;2022-07-18T10:04:30;24.40;52.00
72930;DHT22;61073;54.260;20.816;2022-07-18T10:06:57;24.50;52.10
72930;DHT22;61073;54.260;20.816;2022-07-18T10:09:24;24.50;51.70
72930;DHT22;61073;54.260;20.816;2022-07-18T10:11:51;24.60;51.70
72930;DHT22;61073;54.260;20.816;2022-07-18T10:14:19;24.60;51.50
72930;DHT22;61073;54.260;20.816;2022-07-18T10:16:45;24.60;51.40
72930;DHT22;61073;54.260;20.816;2022-07-18T10:19:12;24.60;51.20
72930;DHT22;61073;54.260;20.816;2022-07-18T10:21:40;24.60;51.50
72930;DHT22;61073;54.260;20.816;2022-07-18T10:24:07;24.60;51.70
72930;DHT22;61073;54.260;20.816;2022-07-18T10:26:34;24.60;51.40
72930;DHT22;61073;54.260;20.816;2022-07-18T10:31:28;24.70;51.40
72930;DHT22;61073;54.260;20.816;2022-07-18T10:34:13;24.70;51.40
72930;DHT22;61073;54.260;20.816;2022-07-18T10:36:40;24.60;51.30
72930;DHT22;61073;54.260;20.816;2022-07-18T10:39:11;24.70;51.50
72930;DHT22;61073;54.260;20.816;2022-07-18T10:49:59;24.50;52.40
72930;DHT22;61073;54.260;20.816;2022-07-18T11:00:05;24.40;52.30
72930;DHT22;61073;54.260;20.816;2022-07-18T11:02:38;24.30;52.50
72930;DHT22;61073;54.260;20.816;2022-07-18T11:24:02;24.00;53.40
72930;DHT22;61073;54.260;20.816;2022-07-18T11:26:29;24.00;53.50
72930;DHT22;61073;54.260;20.816;2022-07-18T11:29:00;24.00;53.60
72930;DHT22;61073;54.260;20.816;2022-07-18T11:31:27;23.90;53.80
72930;DHT22;61073;54.260;20.816;2022-07-18T11:33:55;23.90;53.90
72930;DHT22;61073;54.260;20.816;2022-07-18T11:36:22;24.00;53.90
72930;DHT22;61073;54.260;20.816;2022-07-18T11:38:50;24.10;53.60
72930;DHT22;61073;54.260;20.816;2022-07-18T11:41:18;24.00;53.20
72930;DHT22;61073;54.260;20.816;2022-07-18T11:43:46;24.10;53.60
72930;DHT22;61073;54.260;20.816;2022-07-18T11:46:14;24.10;53.70
72930;DHT22;61073;54.260;20.816;2022-07-18T11:48:42;24.10;53.50
72930;DHT22;61073;54.260;20.816;2022-07-18T11:51:10;24.10;53.70
72930;DHT22;61073;54.260;20.816;2022-07-18T11:53:41;24.10;53.40
72930;DHT22;61073;54.260;20.816;2022-07-18T11:56:08;24.20;53.40
72930;DHT22;61073;54.260;20.816;2022-07-18T11:58:36;24.20;53.20
72930;DHT22;61073;54.260;20.816;2022-07-18T12:01:03;24.20;53.40
72930;DHT22;61073;54.260;20.816;2022-07-18T12:03:30;24.10;53.40
72930;DHT22;61073;54.260;20.816;2022-07-18T12:05:57;24.00;53.90
72930;DHT22;61073;54.260;20.816;2022-07-18T12:08:24;24.00;54.00
72930;DHT22;61073;54.260;20.816;2022-07-18T12:13:48;23.90;54.20
72930;DHT22;61073;54.260;20.816;2022-07-18T12:19:03;23.90;54.40
72930;DHT22;61073;54.260;20.816;2022-07-18T12:24:33;24.00;54.30
72930;DHT22;61073;54.260;20.816;2022-07-18T12:27:07;24.00;53.80
72930;DHT22;61073;54.260;20.816;2022-07-18T12:32:22;24.10;53.70
72930;DHT22;61073;54.260;20.816;2022-07-18T12:37:34;24.50;52.70
72930;DHT22;61073;54.260;20.816;2022-07-18T12:40:03;25.00;51.30
72930;DHT22;61073;54.260;20.816;2022-07-18T12:42:51;25.20;51.00
72930;DHT22;61073;54.260;20.816;2022-07-18T12:45:27;25.30;50.60
72930;DHT22;61073;54.260;20.816;2022-07-18T12:47:53;25.40;50.00
72930;DHT22;61073;54.260;20.816;2022-07-18T12:50:20;25.30;50.50
72930;DHT22;61073;54.260;20.816;2022-07-18T12:52:46;25.20;50.40
72930;DHT22;61073;54.260;20.816;2022-07-18T12:55:13;25.10;51.70
72930;DHT22;61073;54.260;20.816;2022-07-18T12:57:39;24.90;51.40
72930;DHT22;61073;54.260;20.816;2022-07-18T13:00:06;24.70;52.00
72930;DHT22;61073;54.260;20.816;2022-07-18T13:02:32;24.60;52.20
72930;DHT22;61073;54.260;20.816;2022-07-18T13:04:59;24.60;52.40
72930;DHT22;61073;54.260;20.816;2022-07-18T13:07:25;24.60;52.40
72930;DHT22;61073;54.260;20.816;2022-07-18T13:09:52;24.60;52.60
72930;DHT22;61073;54.260;20.816;2022-07-18T13:12:18;24.50;52.80
72930;DHT22;61073;54.260;20.816;2022-07-18T13:14:45;24.60;52.70
72930;DHT22;61073;54.260;20.816;2022-07-18T13:17:12;24.60;52.60
72930;DHT22;61073;54.260;20.816;2022-07-18T13:19:38;24.70;52.60
72930;DHT22;61073;54.260;20.816;2022-07-18T13:22:05;24.60;52.50
72930;DHT22;61073;54.260;20.816;2022-07-18T13:24:32;24.60;52.60
72930;DHT22;61073;54.260;20.816;2022-07-18T13:27:01;24.60;52.60
72930;DHT22;61073;54.260;20.816;2022-07-18T13:29:27;24.60;52.70
72930;DHT22;61073;54.260;20.816;2022-07-18T13:31:54;24.60;52.80
72930;DHT22;61073;54.260;20.816;2022-07-18T13:34:20;24.60;52.80
72930;DHT22;61073;54.260;20.816;2022-07-18T13:36:50;24.50;53.00
72930;DHT22;61073;54.260;20.816;2022-07-18T13:39:18;24.40;53.20
72930;DHT22;61073;54.260;20.816;2022-07-18T13:41:44;24.30;53.40
72930;DHT22;61073;54.260;20.816;2022-07-18T13:44:11;24.30;53.50
72930;DHT22;61073;54.260;20.816;2022-07-18T13:46:39;24.40;53.40
72930;DHT22;61073;54.260;20.816;2022-07-18T13:49:07;24.40;53.10
72930;DHT22;61073;54.260;20.816;2022-07-18T13:51:34;24.60;52.90
72930;DHT22;61073;54.260;20.816;2022-07-18T13:54:00;24.70;52.60
72930;DHT22;61073;54.260;20.816;2022-07-18T13:56:27;24.90;52.10
72930;DHT22;61073;54.260;20.816;2022-07-18T13:58:54;25.40;50.90
72930;DHT22;61073;54.260;20.816;2022-07-18T14:01:20;25.50;50.30
72930;DHT22;61073;54.260;20.816;2022-07-18T14:03:46;25.40;50.10
72930;DHT22;61073;54.260;20.816;2022-07-18T14:06:13;25.50;50.10
72930;DHT22;61073;54.260;20.816;2022-07-18T14:08:40;25.50;50.80
72930;DHT22;61073;54.260;20.816;2022-07-18T14:11:06;25.40;50.70
72930;DHT22;61073;54.260;20.816;2022-07-18T14:13:33;25.30;50.90
72930;DHT22;61073;54.260;20.816;2022-07-18T14:15:59;25.20;51.00
72930;DHT22;61073;54.260;20.816;2022-07-18T14:18:26;25.50;50.30
72930;DHT22;61073;54.260;20.816;2022-07-18T14:20:53;25.90;49.20
72930;DHT22;61073;54.260;20.816;2022-07-18T14:23:20;26.50;47.80
72930;DHT22;61073;54.260;20.816;2022-07-18T14:25:46;26.90;46.70
72930;DHT22;61073;54.260;20.816;2022-07-18T14:28:13;26.80;47.10
72930;DHT22;61073;54.260;20.816;2022-07-18T14:30:39;26.80;47.20
72930;DHT22;61073;54.260;20.816;2022-07-18T14:33:06;28.20;43.80
72930;DHT22;61073;54.260;20.816;2022-07-18T14:35:36;29.30;41.60
72930;DHT22;61073;54.260;20.816;2022-07-18T14:38:02;30.10;40.00
72930;DHT22;61073;54.260;20.816;2022-07-18T14:40:29;29.40;41.30
72930;DHT22;61073;54.260;20.816;2022-07-18T14:42:55;28.40;43.40
72930;DHT22;61073;54.260;20.816;2022-07-18T14:45:22;27.60;45.10
72930;DHT22;61073;54.260;20.816;2022-07-18T14:47:48;27.10;46.90
72930;DHT22;61073;54.260;20.816;2022-07-18T14:50:15;26.60;47.20
72930;DHT22;61073;54.260;20.816;2022-07-18T14:52:41;26.40;47.80
72930;DHT22;61073;54.260;20.816;2022-07-18T14:55:09;26.50;47.60
72930;DHT22;61073;54.260;20.816;2022-07-18T14:57:35;26.80;47.00
72930;DHT22;61073;54.260;20.816;2022-07-18T15:00:05;26.90;46.80
72930;DHT22;61073;54.260;20.816;2022-07-18T15:02:32;26.80;47.60
72930;DHT22;61073;54.260;20.816;2022-07-18T15:04:59;26.50;47.80
72930;DHT22;61073;54.260;20.816;2022-07-18T15:07:26;26.20;48.50
72930;DHT22;61073;54.260;20.816;2022-07-18T15:09:52;25.90;49.20
72930;DHT22;61073;54.260;20.816;2022-07-18T15:12:18;25.60;49.80
72930;DHT22;61073;54.260;20.816;2022-07-18T15:14:45;25.40;50.50
72930;DHT22;61073;54.260;20.816;2022-07-18T15:17:11;25.20;51.10
72930;DHT22;61073;54.260;20.816;2022-07-18T15:19:38;25.10;51.60
72930;DHT22;61073;54.260;20.816;2022-07-18T15:22:04;25.00;51.80
72930;DHT22;61073;54.260;20.816;2022-07-18T15:24:32;25.00;51.80
72930;DHT22;61073;54.260;20.816;2022-07-18T15:26:58;25.00;51.80
72930;DHT22;61073;54.260;20.816;2022-07-18T15:29:25;24.90;51.90
72930;DHT22;61073;54.260;20.816;2022-07-18T15:31:52;24.90;52.20
72930;DHT22;61073;54.260;20.816;2022-07-18T15:34:21;24.90;52.20
72930;DHT22;61073;54.260;20.816;2022-07-18T15:36:47;24.80;52.30
72930;DHT22;61073;54.260;20.816;2022-07-18T15:39:14;24.80;52.60
72930;DHT22;61073;54.260;20.816;2022-07-18T15:41:40;24.70;52.60
72930;DHT22;61073;54.260;20.816;2022-07-18T15:44:10;24.70;53.00
72930;DHT22;61073;54.260;20.816;2022-07-18T15:46:37;24.70;53.00
72930;DHT22;61073;54.260;20.816;2022-07-18T15:49:03;24.60;53.70
72930;DHT22;61073;54.260;20.816;2022-07-18T15:51:30;24.60;53.40
72930;DHT22;61073;54.260;20.816;2022-07-18T15:53:57;24.50;53.50
72930;DHT22;61073;54.260;20.816;2022-07-18T15:56:23;24.50;53.80
72930;DHT22;61073;54.260;20.816;2022-07-18T15:58:50;24.40;53.70
72930;DHT22;61073;54.260;20.816;2022-07-18T16:01:16;24.40;53.70
72930;DHT22;61073;54.260;20.816;2022-07-18T16:03:43;24.40;53.80
72930;DHT22;61073;54.260;20.816;2022-07-18T16:06:10;24.30;53.90
72930;DHT22;61073;54.260;20.816;2022-07-18T16:08:37;24.30;54.00
72930;DHT22;61073;54.260;20.816;2022-07-18T16:11:03;24.30;54.20
72930;DHT22;61073;54.260;20.816;2022-07-18T16:13:30;24.20;54.20
72930;DHT22;61073;54.260;20.816;2022-07-18T16:15:57;24.20;54.40
72930;DHT22;61073;54.260;20.816;2022-07-18T16:18:23;24.10;54.20